sensor_id;sensor_type;location;lat;lon;timestamp;pressure;altitude;pressure_sealevel;temperature;humidity
76060;BME280;64759;52.220;5.170;2023-03-26T00:01:01;100652.78;;;9.00;81.88
76060;BME280;64759;52.220;5.170;2023-03-26T00:03:31;100652.13;;;8.98;81.84
76060;BME280;64759;52.220;5.170;2023-03-26T00:06:10;100648.19;;;8.94;82.27
76060;BME280;64759;52.220;5.170;2023-03-26T00:08:38;100650.63;;;8.95;82.25
76060;BME280;64759;52.220;5.170;2023-03-26T00:11:07;100642.63;;;8.98;82.04
76060;BME280;64759;52.220;5.170;2023-03-26T00:13:33;100644.38;;;8.98;82.03
76060;BME280;64759;52.220;5.170;2023-03-26T00:15:59;100640.84;;;8.99;82.00
76060;BME280;64759;52.220;5.170;2023-03-26T00:18:26;100644.22;;;8.99;81.61
76060;BME280;64759;52.220;5.170;2023-03-26T00:21:02;100639.06;;;8.99;81.49
76060;BME280;64759;52.220;5.170;2023-03-26T00:23:29;100640.03;;;8.98;81.96
76060;BME280;64759;52.220;5.170;2023-03-26T00:25:55;100637.44;;;8.98;81.78
76060;BME280;64759;52.220;5.170;2023-03-26T00:28:22;100639.06;;;8.99;81.57
76060;BME280;64759;52.220;5.170;2023-03-26T00:30:49;100636.63;;;8.98;81.83
76060;BME280;64759;52.220;5.170;2023-03-26T00:33:15;100637.56;;;8.87;82.11
76060;BME280;64759;52.220;5.170;2023-03-26T00:35:44;100641.94;;;8.87;81.48
76060;BME280;64759;52.220;5.170;2023-03-26T00:38:14;100641.78;;;8.88;81.66
76060;BME280;64759;52.220;5.170;2023-03-26T00:40:40;100634.03;;;8.88;81.67
76060;BME280;64759;52.220;5.170;2023-03-26T00:43:13;100621.94;;;8.89;81.71
76060;BME280;64759;52.220;5.170;2023-03-26T00:45:50;100617.19;;;8.84;81.38
76060;BME280;64759;52.220;5.170;2023-03-26T00:48:16;100619.22;;;8.81;81.74
76060;BME280;64759;52.220;5.170;2023-03-26T00:50:43;100613.38;;;8.79;81.48
76060;BME280;64759;52.220;5.170;2023-03-26T00:53:10;100606.72;;;8.76;81.73
76060;BME280;64759;52.220;5.170;2023-03-26T00:55:42;100618.28;;;8.72;81.87
76060;BME280;64759;52.220;5.170;2023-03-26T00:58:08;100612.41;;;8.70;81.63
76060;BME280;64759;52.220;5.170;2023-03-26T01:00:53;100610.22;;;8.66;81.69
76060;BME280;64759;52.220;5.170;2023-03-26T01:03:22;100605.75;;;8.68;81.96
76060;BME280;64759;52.220;5.170;2023-03-26T01:05:51;100610.91;;;8.68;81.79
76060;BME280;64759;52.220;5.170;2023-03-26T01:10:47;100594.63;;;8.67;82.08
76060;BME280;64759;52.220;5.170;2023-03-26T01:13:21;100591.91;;;8.69;82.50
76060;BME280;64759;52.220;5.170;2023-03-26T01:15:49;100599.38;;;8.72;82.07
76060;BME280;64759;52.220;5.170;2023-03-26T01:18:23;100598.41;;;8.73;82.41
76060;BME280;64759;52.220;5.170;2023-03-26T01:20:53;100587.41;;;8.71;82.71
76060;BME280;64759;52.220;5.170;2023-03-26T01:23:44;100577.91;;;8.71;82.31
76060;BME280;64759;52.220;5.170;2023-03-26T01:26:21;100573.16;;;8.76;82.19
76060;BME280;64759;52.220;5.170;2023-03-26T01:28:54;100567.31;;;8.74;81.84
76060;BME280;64759;52.220;5.170;2023-03-26T01:40:34;100555.91;;;8.67;81.57
76060;BME280;64759;52.220;5.170;2023-03-26T01:42:47;100547.75;;;8.62;82.14
76060;BME280;64759;52.220;5.170;2023-03-26T01:45:17;100543.69;;;8.60;81.94
76060;BME280;64759;52.220;5.170;2023-03-26T01:47:46;100539.03;;;8.53;82.21
76060;BME280;64759;52.220;5.170;2023-03-26T01:50:12;100539.19;;;8.52;82.31
76060;BME280;64759;52.220;5.170;2023-03-26T01:52:37;100538.78;;;8.47;83.18
76060;BME280;64759;52.220;5.170;2023-03-26T01:55:03;100531.16;;;8.45;83.01
76060;BME280;64759;52.220;5.170;2023-03-26T02:00:32;100526.28;;;8.52;82.42
76060;BME280;64759;52.220;5.170;2023-03-26T02:05:36;100521.38;;;8.49;83.07
76060;BME280;64759;52.220;5.170;2023-03-26T02:10:51;100522.06;;;8.41;82.77
76060;BME280;64759;52.220;5.170;2023-03-26T02:13:19;100522.47;;;8.37;83.02
76060;BME280;64759;52.220;5.170;2023-03-26T02:16:00;100517.41;;;8.35;83.15
76060;BME280;64759;52.220;5.170;2023-03-26T02:18:26;100512.97;;;8.37;83.02
76060;BME280;64759;52.220;5.170;2023-03-26T02:21:05;100516.91;;;8.41;83.48
76060;BME280;64759;52.220;5.170;2023-03-26T02:23:39;100507.13;;;8.45;83.27
76060;BME280;64759;52.220;5.170;2023-03-26T02:26:06;100505.09;;;8.48;83.37
76060;BME280;64759;52.220;5.170;2023-03-26T02:28:36;100499.25;;;8.56;83.58
76060;BME280;64759;52.220;5.170;2023-03-26T02:31:03;100494.34;;;8.63;83.38
76060;BME280;64759;52.220;5.170;2023-03-26T02:33:30;100483.50;;;8.69;83.03
76060;BME280;64759;52.220;5.170;2023-03-26T02:35:57;100484.97;;;8.71;82.89
76060;BME280;64759;52.220;5.170;2023-03-26T02:38:32;100479.81;;;8.71;82.98
76060;BME280;64759;52.220;5.170;2023-03-26T02:41:01;100480.50;;;8.73;83.17
76060;BME280;64759;52.220;5.170;2023-03-26T02:43:38;100468.13;;;8.77;83.27
76060;BME280;64759;52.220;5.170;2023-03-26T02:46:06;100472.88;;;8.81;83.12
76060;BME280;64759;52.220;5.170;2023-03-26T02:48:47;100472.47;;;8.86;82.69
76060;BME280;64759;52.220;5.170;2023-03-26T02:51:19;100474.25;;;8.76;83.11
76060;BME280;64759;52.220;5.170;2023-03-26T02:54:01;100471.50;;;8.77;83.18
76060;BME280;64759;52.220;5.170;2023-03-26T02:56:42;100475.19;;;8.75;83.40
76060;BME280;64759;52.220;5.170;2023-03-26T02:59:22;100469.91;;;8.76;83.01
76060;BME280;64759;52.220;5.170;2023-03-26T03:02:01;100471.66;;;8.76;83.24
76060;BME280;64759;52.220;5.170;2023-03-26T03:04:30;100468.00;;;8.78;83.04
76060;BME280;64759;52.220;5.170;2023-03-26T03:06:56;100470.56;;;8.78;83.13
76060;BME280;64759;52.220;5.170;2023-03-26T03:09:23;100467.31;;;8.76;83.23
76060;BME280;64759;52.220;5.170;2023-03-26T03:12:10;100466.66;;;8.74;83.49
76060;BME280;64759;52.220;5.170;2023-03-26T03:14:35;100468.13;;;8.77;83.30
76060;BME280;64759;52.220;5.170;2023-03-26T03:17:02;100465.13;;;8.81;83.21
76060;BME280;64759;52.220;5.170;2023-03-26T03:19:27;100470.97;;;8.83;83.05
76060;BME280;64759;52.220;5.170;2023-03-26T03:21:53;100459.56;;;8.86;82.83
76060;BME280;64759;52.220;5.170;2023-03-26T03:24:18;100447.88;;;8.82;83.05
76060;BME280;64759;52.220;5.170;2023-03-26T03:26:46;100439.06;;;8.84;82.50
76060;BME280;64759;52.220;5.170;2023-03-26T03:29:38;100443.25;;;8.85;82.69
76060;BME280;64759;52.220;5.170;2023-03-26T03:32:23;100437.97;;;8.87;82.90
76060;BME280;64759;52.220;5.170;2023-03-26T03:34:52;100442.56;;;8.83;82.89
76060;BME280;64759;52.220;5.170;2023-03-26T03:37:19;100443.81;;;8.79;83.25
76060;BME280;64759;52.220;5.170;2023-03-26T03:39:54;100426.53;;;8.80;83.24
76060;BME280;64759;52.220;5.170;2023-03-26T03:42:22;100431.41;;;8.83;83.53
76060;BME280;64759;52.220;5.170;2023-03-26T03:44:50;100431.81;;;8.88;83.30
76060;BME280;64759;52.220;5.170;2023-03-26T03:47:37;100428.81;;;8.92;83.23
76060;BME280;64759;52.220;5.170;2023-03-26T03:50:03;100422.44;;;8.96;83.02
76060;BME280;64759;52.220;5.170;2023-03-26T03:52:30;100424.59;;;9.01;83.18
76060;BME280;64759;52.220;5.170;2023-03-26T03:54:56;100426.75;;;9.05;83.02
76060;BME280;64759;52.220;5.170;2023-03-26T03:57:59;100426.75;;;9.05;83.09
76060;BME280;64759;52.220;5.170;2023-03-26T04:00:25;100423.22;;;9.06;83.12
76060;BME280;64759;52.220;5.170;2023-03-26T04:03:14;100424.84;;;9.07;83.53
76060;BME280;64759;52.220;5.170;2023-03-26T04:05:42;100417.38;;;9.04;83.67
76060;BME280;64759;52.220;5.170;2023-03-26T04:08:15;100425.41;;;9.01;83.94
76060;BME280;64759;52.220;5.170;2023-03-26T04:10:44;100422.41;;;9.06;84.26
76060;BME280;64759;52.220;5.170;2023-03-26T04:13:11;100413.72;;;8.97;84.59
76060;BME280;64759;52.220;5.170;2023-03-26T04:16:00;100414.38;;;8.99;84.50
76060;BME280;64759;52.220;5.170;2023-03-26T04:18:25;100409.91;;;9.01;84.93
76060;BME280;64759;52.220;5.170;2023-03-26T04:20:52;100410.47;;;8.95;84.95
76060;BME280;64759;52.220;5.170;2023-03-26T04:23:24;100396.31;;;8.99;84.75
76060;BME280;64759;52.220;5.170;2023-03-26T04:26:00;100398.34;;;9.05;84.66
76060;BME280;64759;52.220;5.170;2023-03-26T04:28:46;100388.56;;;9.09;84.39
76060;BME280;64759;52.220;5.170;2023-03-26T04:31:22;100380.00;;;9.08;84.74
76060;BME280;64759;52.220;5.170;2023-03-26T04:33:54;100383.66;;;9.06;84.57
76060;BME280;64759;52.220;5.170;2023-03-26T04:36:27;100378.94;;;9.01;84.34
76060;BME280;64759;52.220;5.170;2023-03-26T04:38:55;100369.28;;;9.03;84.31
76060;BME280;64759;52.220;5.170;2023-03-26T04:41:35;100366.69;;;9.03;84.65
76060;BME280;64759;52.220;5.170;2023-03-26T04:44:04;100362.34;;;9.04;84.40
76060;BME280;64759;52.220;5.170;2023-03-26T04:46:30;100358.78;;;9.05;84.63
76060;BME280;64759;52.220;5.170;2023-03-26T04:49:07;100359.22;;;9.00;84.63
76060;BME280;64759;52.220;5.170;2023-03-26T04:51:36;100350.53;;;9.01;84.58
76060;BME280;64759;52.220;5.170;2023-03-26T04:54:07;100346.03;;;9.03;84.50
76060;BME280;64759;52.220;5.170;2023-03-26T04:56:56;100349.28;;;9.05;84.31
76060;BME280;64759;52.220;5.170;2023-03-26T04:59:37;100339.59;;;9.07;84.23
76060;BME280;64759;52.220;5.170;2023-03-26T05:02:09;100342.84;;;9.09;84.29
76060;BME280;64759;52.220;5.170;2023-03-26T05:04:45;100339.47;;;9.09;84.21
76060;BME280;64759;52.220;5.170;2023-03-26T05:07:19;100332.69;;;9.08;84.34
76060;BME280;64759;52.220;5.170;2023-03-26T05:09:51;100332.53;;;9.09;83.52
76060;BME280;64759;52.220;5.170;2023-03-26T05:12:35;100318.13;;;9.07;83.86
76060;BME280;64759;52.220;5.170;2023-03-26T05:15:04;100327.66;;;9.06;83.88
76060;BME280;64759;52.220;5.170;2023-03-26T05:17:49;100326.31;;;9.02;84.21
76060;BME280;64759;52.220;5.170;2023-03-26T05:20:26;100325.38;;;9.03;84.13
76060;BME280;64759;52.220;5.170;2023-03-26T05:22:52;100329.28;;;9.07;83.96
76060;BME280;64759;52.220;5.170;2023-03-26T05:25:23;100323.84;;;9.10;83.70
76060;BME280;64759;52.220;5.170;2023-03-26T05:27:49;100314.44;;;9.09;84.10
76060;BME280;64759;52.220;5.170;2023-03-26T05:30:19;100313.50;;;9.10;84.13
76060;BME280;64759;52.220;5.170;2023-03-26T05:32:53;100310.09;;;9.10;83.89
76060;BME280;64759;52.220;5.170;2023-03-26T05:35:23;100317.72;;;9.11;83.83
76060;BME280;64759;52.220;5.170;2023-03-26T05:37:49;100313.78;;;9.07;83.55
76060;BME280;64759;52.220;5.170;2023-03-26T05:40:19;100302.25;;;9.02;83.54
76060;BME280;64759;52.220;5.170;2023-03-26T05:43:04;100298.19;;;8.99;83.86
76060;BME280;64759;52.220;5.170;2023-03-26T05:45:33;100294.44;;;8.94;83.83
76060;BME280;64759;52.220;5.170;2023-03-26T05:48:07;100307.34;;;8.94;84.19
76060;BME280;64759;52.220;5.170;2023-03-26T05:50:33;100300.69;;;8.91;84.22
76060;BME280;64759;52.220;5.170;2023-03-26T05:52:59;100294.03;;;8.89;84.29
76060;BME280;64759;52.220;5.170;2023-03-26T05:55:47;100296.09;;;8.85;84.40
76060;BME280;64759;52.220;5.170;2023-03-26T05:58:40;100298.00;;;8.83;84.85
76060;BME280;64759;52.220;5.170;2023-03-26T06:01:24;100293.94;;;8.81;84.57
76060;BME280;64759;52.220;5.170;2023-03-26T06:04:25;100296.78;;;8.78;84.84
76060;BME280;64759;52.220;5.170;2023-03-26T06:07:11;100289.09;;;8.68;84.96
76060;BME280;64759;52.220;5.170;2023-03-26T06:09:39;100286.13;;;8.63;85.06
76060;BME280;64759;52.220;5.170;2023-03-26T06:12:06;100284.50;;;8.62;85.32
76060;BME280;64759;52.220;5.170;2023-03-26T06:14:32;100275.78;;;8.63;85.69
76060;BME280;64759;52.220;5.170;2023-03-26T06:17:15;100282.16;;;8.69;85.32
76060;BME280;64759;52.220;5.170;2023-03-26T06:20:01;100268.44;;;8.68;85.59
76060;BME280;64759;52.220;5.170;2023-03-26T06:22:47;100265.72;;;8.70;85.32
76060;BME280;64759;52.220;5.170;2023-03-26T06:25:38;100270.59;;;8.73;85.11
76060;BME280;64759;52.220;5.170;2023-03-26T06:28:14;100247.78;;;8.68;85.91
76060;BME280;64759;52.220;5.170;2023-03-26T06:31:02;100257.88;;;8.62;86.00
76060;BME280;64759;52.220;5.170;2023-03-26T06:33:41;100262.75;;;8.65;85.88
76060;BME280;64759;52.220;5.170;2023-03-26T06:36:08;100255.97;;;8.64;85.89
76060;BME280;64759;52.220;5.170;2023-03-26T06:38:34;100247.41;;;8.63;85.62
76060;BME280;64759;52.220;5.170;2023-03-26T06:41:03;100250.81;;;8.64;85.99
76060;BME280;64759;52.220;5.170;2023-03-26T06:43:48;100251.22;;;8.59;85.88
76060;BME280;64759;52.220;5.170;2023-03-26T06:46:34;100252.84;;;8.60;86.06
76060;BME280;64759;52.220;5.170;2023-03-26T06:49:18;100257.75;;;8.53;86.57
76060;BME280;64759;52.220;5.170;2023-03-26T06:52:04;100252.31;;;8.57;86.59
76060;BME280;64759;52.220;5.170;2023-03-26T06:54:40;100259.78;;;8.60;86.86
76060;BME280;64759;52.220;5.170;2023-03-26T06:57:23;100260.06;;;8.57;87.31
76060;BME280;64759;52.220;5.170;2023-03-26T07:00:07;100261.00;;;8.55;86.82
76060;BME280;64759;52.220;5.170;2023-03-26T07:02:51;100254.78;;;8.48;86.93
76060;BME280;64759;52.220;5.170;2023-03-26T07:05:36;100261.44;;;8.51;87.19
76060;BME280;64759;52.220;5.170;2023-03-26T07:08:20;100260.09;;;8.47;87.05
76060;BME280;64759;52.220;5.170;2023-03-26T07:11:06;100262.69;;;8.47;87.27
76060;BME280;64759;52.220;5.170;2023-03-26T07:13:53;100256.03;;;8.44;87.38
76060;BME280;64759;52.220;5.170;2023-03-26T07:16:39;100261.06;;;8.46;87.40
76060;BME280;64759;52.220;5.170;2023-03-26T07:19:25;100262.81;;;8.45;87.32
76060;BME280;64759;52.220;5.170;2023-03-26T07:21:51;100253.97;;;8.48;87.44
76060;BME280;64759;52.220;5.170;2023-03-26T07:24:40;100254.28;;;8.35;88.08
76060;BME280;64759;52.220;5.170;2023-03-26T07:27:59;100259.31;;;8.37;88.33
76060;BME280;64759;52.220;5.170;2023-03-26T07:37:43;100243.72;;;8.19;88.97
76060;BME280;64759;52.220;5.170;2023-03-26T07:46:53;100246.53;;;8.26;88.48
76060;BME280;64759;52.220;5.170;2023-03-26T07:49:33;100241.00;;;8.21;87.90
76060;BME280;64759;52.220;5.170;2023-03-26T07:52:20;100243.47;;;8.13;87.98
76060;BME280;64759;52.220;5.170;2023-03-26T07:54:57;100243.72;;;8.19;87.58
76060;BME280;64759;52.220;5.170;2023-03-26T07:58:07;100243.28;;;8.24;87.40
76060;BME280;64759;52.220;5.170;2023-03-26T08:01:20;100239.94;;;8.33;87.31
76060;BME280;64759;52.220;5.170;2023-03-26T08:04:22;100246.47;;;8.27;86.94
76060;BME280;64759;52.220;5.170;2023-03-26T08:10:36;100239.09;;;8.23;86.33
76060;BME280;64759;52.220;5.170;2023-03-26T08:16:11;100230.56;;;8.22;85.92
76060;BME280;64759;52.220;5.170;2023-03-26T08:21:44;100228.41;;;8.27;85.42
76060;BME280;64759;52.220;5.170;2023-03-26T08:24:33;100242.22;;;8.26;85.58
76060;BME280;64759;52.220;5.170;2023-03-26T08:27:10;100238.56;;;8.29;85.08
76060;BME280;64759;52.220;5.170;2023-03-26T08:29:50;100238.81;;;8.26;84.95
76060;BME280;64759;52.220;5.170;2023-03-26T08:32:19;100238.13;;;8.24;85.01
76060;BME280;64759;52.220;5.170;2023-03-26T08:34:46;100249.53;;;8.31;84.72
76060;BME280;64759;52.220;5.170;2023-03-26T08:37:12;100241.53;;;8.24;85.45
76060;BME280;64759;52.220;5.170;2023-03-26T08:39:37;100241.16;;;8.29;85.06
76060;BME280;64759;52.220;5.170;2023-03-26T08:56:19;100247.38;;;8.36;85.14
76060;BME280;64759;52.220;5.170;2023-03-26T09:07:46;100254.03;;;8.29;84.36
76060;BME280;64759;52.220;5.170;2023-03-26T09:25:28;100255.09;;;8.36;83.16
76060;BME280;64759;52.220;5.170;2023-03-26T09:30:45;100250.69;;;8.55;83.29
76060;BME280;64759;52.220;5.170;2023-03-26T09:33:41;100250.84;;;8.54;83.44
76060;BME280;64759;52.220;5.170;2023-03-26T09:41:41;100260.78;;;8.49;83.49
76060;BME280;64759;52.220;5.170;2023-03-26T09:50:21;100256.56;;;8.48;82.09
76060;BME280;64759;52.220;5.170;2023-03-26T09:55:52;100264.84;;;8.51;81.38
76060;BME280;64759;52.220;5.170;2023-03-26T10:01:46;100275.44;;;8.48;80.59
76060;BME280;64759;52.220;5.170;2023-03-26T10:10:45;100282.66;;;8.35;80.29
76060;BME280;64759;52.220;5.170;2023-03-26T10:18:32;100287.69;;;8.37;80.99
76060;BME280;64759;52.220;5.170;2023-03-26T10:21:13;100284.94;;;8.48;80.98
76060;BME280;64759;52.220;5.170;2023-03-26T10:23:53;100283.16;;;8.58;81.21
76060;BME280;64759;52.220;5.170;2023-03-26T10:26:26;100287.13;;;8.52;80.57
76060;BME280;64759;52.220;5.170;2023-03-26T10:29:19;100288.22;;;8.50;79.97
76060;BME280;64759;52.220;5.170;2023-03-26T10:38:05;100300.25;;;8.59;79.01
76060;BME280;64759;52.220;5.170;2023-03-26T10:41:07;100300.00;;;8.62;78.46
76060;BME280;64759;52.220;5.170;2023-03-26T10:43:58;100304.97;;;8.73;78.98
76060;BME280;64759;52.220;5.170;2023-03-26T10:51:58;100310.56;;;8.69;78.48
76060;BME280;64759;52.220;5.170;2023-03-26T10:54:29;100312.19;;;8.70;78.26
76060;BME280;64759;52.220;5.170;2023-03-26T10:57:03;100310.31;;;8.62;78.11
76060;BME280;64759;52.220;5.170;2023-03-26T10:59:30;100310.16;;;8.64;78.28
76060;BME280;64759;52.220;5.170;2023-03-26T11:02:26;100320.72;;;8.70;78.30
76060;BME280;64759;52.220;5.170;2023-03-26T11:07:41;100333.78;;;8.69;78.19
76060;BME280;64759;52.220;5.170;2023-03-26T11:10:38;100331.50;;;8.56;78.18
76060;BME280;64759;52.220;5.170;2023-03-26T11:15:55;100335.44;;;8.60;78.29
76060;BME280;64759;52.220;5.170;2023-03-26T11:18:45;100338.13;;;8.68;78.52
76060;BME280;64759;52.220;5.170;2023-03-26T11:21:31;100337.72;;;8.63;76.69
76060;BME280;64759;52.220;5.170;2023-03-26T11:24:15;100336.38;;;8.69;77.06
76060;BME280;64759;52.220;5.170;2023-03-26T11:26:56;100336.94;;;8.53;76.88
76060;BME280;64759;52.220;5.170;2023-03-26T11:29:38;100343.44;;;8.67;76.79
76060;BME280;64759;52.220;5.170;2023-03-26T11:32:19;100340.72;;;8.68;75.94
76060;BME280;64759;52.220;5.170;2023-03-26T11:37:53;100340.94;;;8.84;74.78
76060;BME280;64759;52.220;5.170;2023-03-26T11:40:41;100355.31;;;8.96;73.12
76060;BME280;64759;52.220;5.170;2023-03-26T11:43:21;100346.97;;;9.02;73.34
76060;BME280;64759;52.220;5.170;2023-03-26T11:45:49;100351.75;;;9.25;73.34
76060;BME280;64759;52.220;5.170;2023-03-26T11:48:22;100352.84;;;9.22;72.19
76060;BME280;64759;52.220;5.170;2023-03-26T11:50:54;100353.34;;;9.35;72.79
76060;BME280;64759;52.220;5.170;2023-03-26T11:53:24;100351.47;;;9.55;72.76
76060;BME280;64759;52.220;5.170;2023-03-26T11:56:11;100355.94;;;9.80;72.16
76060;BME280;64759;52.220;5.170;2023-03-26T11:59:02;100350.69;;;10.07;70.99
76060;BME280;64759;52.220;5.170;2023-03-26T12:04:45;100351.56;;;10.16;68.67
76060;BME280;64759;52.220;5.170;2023-03-26T12:09:52;100369.75;;;10.24;67.41
76060;BME280;64759;52.220;5.170;2023-03-26T12:12:19;100362.28;;;10.21;66.31
76060;BME280;64759;52.220;5.170;2023-03-26T12:14:46;100362.91;;;10.05;67.59
76060;BME280;64759;52.220;5.170;2023-03-26T12:17:14;100366.44;;;10.14;67.34
76060;BME280;64759;52.220;5.170;2023-03-26T12:19:48;100374.69;;;10.17;67.47
76060;BME280;64759;52.220;5.170;2023-03-26T12:22:35;100366.63;;;10.20;66.82
76060;BME280;64759;52.220;5.170;2023-03-26T12:25:21;100380.75;;;10.26;66.67
76060;BME280;64759;52.220;5.170;2023-03-26T12:30:21;100382.16;;;10.20;65.87
76060;BME280;64759;52.220;5.170;2023-03-26T12:32:48;100378.63;;;10.21;65.99
76060;BME280;64759;52.220;5.170;2023-03-26T12:35:16;100387.31;;;10.38;64.25
76060;BME280;64759;52.220;5.170;2023-03-26T12:37:43;100395.63;;;10.24;66.53
76060;BME280;64759;52.220;5.170;2023-03-26T12:42:52;100393.44;;;10.37;64.62
76060;BME280;64759;52.220;5.170;2023-03-26T12:45:28;100394.28;;;10.37;65.44
76060;BME280;64759;52.220;5.170;2023-03-26T12:47:55;100398.22;;;10.24;64.99
76060;BME280;64759;52.220;5.170;2023-03-26T12:50:26;100395.84;;;10.30;64.05
76060;BME280;64759;52.220;5.170;2023-03-26T12:56:11;100410.88;;;10.27;65.06
76060;BME280;64759;52.220;5.170;2023-03-26T13:01:43;100401.63;;;10.24;64.02
76060;BME280;64759;52.220;5.170;2023-03-26T13:04:27;100406.63;;;10.43;63.18
76060;BME280;64759;52.220;5.170;2023-03-26T13:07:16;100408.06;;;10.64;63.04
76060;BME280;64759;52.220;5.170;2023-03-26T13:09:52;100420.75;;;10.75;62.57
76060;BME280;64759;52.220;5.170;2023-03-26T13:20:48;100426.50;;;10.61;61.60
76060;BME280;64759;52.220;5.170;2023-03-26T13:31:51;100441.16;;;10.34;61.59
76060;BME280;64759;52.220;5.170;2023-03-26T13:37:30;100444.09;;;10.39;60.60
76060;BME280;64759;52.220;5.170;2023-03-26T13:43:00;100458.03;;;10.38;60.10
76060;BME280;64759;52.220;5.170;2023-03-26T13:46:03;100458.09;;;10.46;60.35
76060;BME280;64759;52.220;5.170;2023-03-26T13:48:40;100454.91;;;10.52;59.71
76060;BME280;64759;52.220;5.170;2023-03-26T13:51:17;100452.50;;;10.59;59.40
76060;BME280;64759;52.220;5.170;2023-03-26T13:53:56;100469.41;;;10.63;59.87
76060;BME280;64759;52.220;5.170;2023-03-26T13:56:29;100462.75;;;10.43;58.38
76060;BME280;64759;52.220;5.170;2023-03-26T13:59:04;100473.84;;;10.35;58.49
76060;BME280;64759;52.220;5.170;2023-03-26T14:01:35;100476.13;;;10.38;58.82
76060;BME280;64759;52.220;5.170;2023-03-26T14:07:05;100482.25;;;10.37;58.64
76060;BME280;64759;52.220;5.170;2023-03-26T14:09:58;100483.69;;;10.32;57.86
76060;BME280;64759;52.220;5.170;2023-03-26T14:12:32;100479.84;;;10.09;58.00
76060;BME280;64759;52.220;5.170;2023-03-26T14:15:26;100490.00;;;9.93;58.93
76060;BME280;64759;52.220;5.170;2023-03-26T14:20:41;100504.81;;;10.27;57.04
76060;BME280;64759;52.220;5.170;2023-03-26T14:34:56;100522.91;;;10.27;56.88
76060;BME280;64759;52.220;5.170;2023-03-26T14:43:51;100538.81;;;9.78;56.40
76060;BME280;64759;52.220;5.170;2023-03-26T14:52:23;100552.91;;;9.93;57.08
76060;BME280;64759;52.220;5.170;2023-03-26T14:54:56;100559.28;;;9.99;56.73
76060;BME280;64759;52.220;5.170;2023-03-26T14:58:01;100556.13;;;10.05;57.04
76060;BME280;64759;52.220;5.170;2023-03-26T15:01:02;100559.31;;;10.26;55.91
76060;BME280;64759;52.220;5.170;2023-03-26T15:11:58;100571.00;;;9.93;54.23
76060;BME280;64759;52.220;5.170;2023-03-26T15:20:30;100583.81;;;9.58;55.26
76060;BME280;64759;52.220;5.170;2023-03-26T15:35:04;100612.56;;;9.07;55.46
76060;BME280;64759;52.220;5.170;2023-03-26T15:43:19;100622.22;;;9.14;55.30
76060;BME280;64759;52.220;5.170;2023-03-26T15:56:08;100655.78;;;9.14;54.37
76060;BME280;64759;52.220;5.170;2023-03-26T15:58:48;100660.28;;;9.12;53.51
76060;BME280;64759;52.220;5.170;2023-03-26T16:01:26;100662.44;;;9.07;53.12
76060;BME280;64759;52.220;5.170;2023-03-26T16:04:19;100675.63;;;9.04;53.99
76060;BME280;64759;52.220;5.170;2023-03-26T16:06:59;100666.69;;;9.08;53.73
76060;BME280;64759;52.220;5.170;2023-03-26T16:12:43;100683.94;;;9.17;52.93
76060;BME280;64759;52.220;5.170;2023-03-26T16:15:39;100687.91;;;9.31;51.48
76060;BME280;64759;52.220;5.170;2023-03-26T16:20:43;100706.38;;;9.07;51.42
76060;BME280;64759;52.220;5.170;2023-03-26T16:23:33;100697.94;;;9.05;51.03
76060;BME280;64759;52.220;5.170;2023-03-26T16:28:58;100711.66;;;8.96;52.63
76060;BME280;64759;52.220;5.170;2023-03-26T16:31:31;100724.97;;;8.92;52.84
76060;BME280;64759;52.220;5.170;2023-03-26T16:41:39;100742.09;;;9.02;53.53
76060;BME280;64759;52.220;5.170;2023-03-26T16:44:26;100760.78;;;8.76;54.08
76060;BME280;64759;52.220;5.170;2023-03-26T16:47:05;100760.34;;;8.61;53.41
76060;BME280;64759;52.220;5.170;2023-03-26T16:49:49;100757.09;;;8.69;53.02
76060;BME280;64759;52.220;5.170;2023-03-26T16:52:29;100768.03;;;8.51;52.37
76060;BME280;64759;52.220;5.170;2023-03-26T16:58:14;100785.66;;;8.46;54.10
76060;BME280;64759;52.220;5.170;2023-03-26T17:00:46;100794.03;;;8.39;54.62
76060;BME280;64759;52.220;5.170;2023-03-26T17:03:15;100797.88;;;8.44;55.00
76060;BME280;64759;52.220;5.170;2023-03-26T17:06:19;100798.34;;;8.29;55.41
76060;BME280;64759;52.220;5.170;2023-03-26T17:11:31;100804.91;;;8.22;55.30
76060;BME280;64759;52.220;5.170;2023-03-26T17:28:31;100846.25;;;8.11;51.80
76060;BME280;64759;52.220;5.170;2023-03-26T17:33:51;100852.22;;;8.11;52.13
76060;BME280;64759;52.220;5.170;2023-03-26T17:37:20;100866.63;;;8.14;52.36
76060;BME280;64759;52.220;5.170;2023-03-26T17:44:42;100872.97;;;7.78;51.23
76060;BME280;64759;52.220;5.170;2023-03-26T17:50:13;100883.97;;;7.80;51.89
76060;BME280;64759;52.220;5.170;2023-03-26T17:53:00;100883.91;;;7.70;52.43
76060;BME280;64759;52.220;5.170;2023-03-26T17:55:33;100889.88;;;7.71;52.99
76060;BME280;64759;52.220;5.170;2023-03-26T17:58:01;100892.53;;;7.80;52.82
76060;BME280;64759;52.220;5.170;2023-03-26T18:00:31;100894.06;;;7.83;52.39
76060;BME280;64759;52.220;5.170;2023-03-26T18:03:34;100905.72;;;7.55;51.77
76060;BME280;64759;52.220;5.170;2023-03-26T18:06:07;100908.06;;;7.58;51.62
76060;BME280;64759;52.220;5.170;2023-03-26T18:12:22;100926.56;;;7.52;52.42
76060;BME280;64759;52.220;5.170;2023-03-26T18:15:09;100923.19;;;7.52;53.89
76060;BME280;64759;52.220;5.170;2023-03-26T18:17:38;100937.81;;;7.51;54.68
76060;BME280;64759;52.220;5.170;2023-03-26T18:20:06;100941.56;;;7.58;54.58
76060;BME280;64759;52.220;5.170;2023-03-26T18:22:33;100940.03;;;7.56;55.68
76060;BME280;64759;52.220;5.170;2023-03-26T18:25:00;100952.91;;;7.45;56.84
76060;BME280;64759;52.220;5.170;2023-03-26T18:27:37;100963.00;;;7.59;56.67
76060;BME280;64759;52.220;5.170;2023-03-26T18:30:14;100964.03;;;7.45;57.01
76060;BME280;64759;52.220;5.170;2023-03-26T18:35:23;100969.31;;;7.55;56.08
76060;BME280;64759;52.220;5.170;2023-03-26T18:37:50;100964.16;;;7.55;55.91
76060;BME280;64759;52.220;5.170;2023-03-26T18:40:22;100984.91;;;7.53;56.13
76060;BME280;64759;52.220;5.170;2023-03-26T18:42:56;100981.97;;;7.47;55.95
76060;BME280;64759;52.220;5.170;2023-03-26T18:48:00;100995.66;;;7.14;54.81